Time;durP1;ratioP1;P1;durP2;ratioP2;P2;SDS_P1;SDS_P2;PMS_P1;PMS_P2;Temp;Humidity;BMP_temperature;BMP_pressure;BME280_temperature;BME280_humidity;BME280_pressure;Samples;Min_cycle;Max_cycle;Signal;HPM_P1;HPM_P2
2022/05/19 00:02:12;;;;;;;14.50;11.73;;;18.70;99.90;;;;;;5093925;28;20039;-78
2022/05/19 00:04:38;;;;;;;15.43;13.65;;;18.70;99.90;;;;;;5093585;28;20103;-78
2022/05/19 00:07:05;;;;;;;17.25;12.98;;;18.60;99.90;;;;;;5093178;28;20487;-77
2022/05/19 00:09:30;;;;;;;20.40;13.27;;;18.70;99.90;;;;;;5094598;28;20028;-78
2022/05/19 00:11:59;;;;;;;14.38;12.85;;;18.70;99.90;;;;;;5094404;28;20035;-77
2022/05/19 00:14:24;;;;;;;13.32;12.02;;;18.60;99.90;;;;;;5094202;28;20024;-78
2022/05/19 00:16:50;;;;;;;15.07;13.32;;;18.60;99.90;;;;;;5093637;28;20042;-78
2022/05/19 00:19:17;;;;;;;19.33;13.70;;;18.60;99.90;;;;;;5093660;28;20028;-78
2022/05/19 00:21:43;;;;;;;17.67;13.52;;;18.60;99.90;;;;;;5094136;28;20028;-79
2022/05/19 00:24:09;;;;;;;17.95;14.15;;;18.60;99.90;;;;;;5093642;28;20024;-77
2022/05/19 00:26:34;;;;;;;20.92;12.98;;;18.60;99.90;;;;;;5093367;28;20538;-78
2022/05/19 00:29:00;;;;;;;17.75;15.05;;;19.50;99.90;;;;;;5093660;28;20032;-78
2022/05/19 00:31:26;;;;;;;20.40;14.07;;;18.60;99.90;;;;;;5093668;28;20035;-78
2022/05/19 00:33:52;;;;;;;21.55;13.60;;;18.60;99.90;;;;;;5093092;28;20036;-78
2022/05/19 00:36:20;;;;;;;16.08;13.77;;;18.60;99.90;;;;;;5093934;28;20380;-79
2022/05/19 00:38:46;;;;;;;18.13;13.93;;;18.70;99.90;;;;;;5093571;28;20126;-78
2022/05/19 00:41:14;;;;;;;15.15;13.73;;;18.60;99.90;;;;;;5093186;28;20038;-79
2022/05/19 00:43:43;;;;;;;19.80;14.48;;;18.70;99.90;;;;;;5093740;28;20103;-77
2022/05/19 00:46:13;;;;;;;15.55;13.85;;;18.60;99.90;;;;;;5093305;28;20401;-78
2022/05/19 00:48:56;;;;;;;18.95;14.10;;;18.60;99.90;;;;;;5093238;28;20020;-77
2022/05/19 00:51:40;;;;;;;20.80;14.48;;;18.60;99.90;;;;;;5093468;28;20484;-78
2022/05/19 00:54:09;;;;;;;18.83;14.60;;;18.60;99.90;;;;;;5092842;28;20425;-79
2022/05/19 00:57:00;;;;;;;15.73;13.45;;;18.60;99.90;;;;;;5093088;28;20040;-79
2022/05/19 00:59:37;;;;;;;15.55;13.90;;;18.60;99.90;;;;;;5084377;28;20848;-78
2022/05/19 01:02:06;;;;;;;21.75;16.08;;;18.50;99.90;;;;;;5092714;28;20051;-79
2022/05/19 01:04:47;;;;;;;25.98;16.30;;;18.50;99.90;;;;;;5093243;28;20089;-78
2022/05/19 01:07:19;;;;;;;19.73;15.85;;;18.50;99.90;;;;;;5093012;28;20020;-79
2022/05/19 01:09:46;;;;;;;21.50;15.63;;;18.50;99.90;;;;;;5092818;28;20020;-78
2022/05/19 01:12:12;;;;;;;16.95;14.77;;;18.40;99.90;;;;;;5093183;28;20024;-77
2022/05/19 01:14:37;;;;;;;14.55;12.63;;;18.50;99.90;;;;;;5092846;28;20153;-78
2022/05/19 01:17:06;;;;;;;16.45;13.23;;;18.40;99.90;;;;;;5092140;28;20075;-76
2022/05/19 01:19:52;;;;;;;19.85;14.85;;;18.40;99.90;;;;;;5092989;28;20058;-78
2022/05/19 01:22:27;;;;;;;25.35;17.52;;;18.40;99.90;;;;;;5092486;28;20476;-77
2022/05/19 01:25:11;;;;;;;24.55;15.93;;;18.40;99.90;;;;;;5092536;28;20565;-79
2022/05/19 01:27:36;;;;;;;20.95;15.05;;;18.40;99.90;;;;;;5092509;28;20032;-78
2022/05/19 01:30:08;;;;;;;21.05;16.10;;;18.40;99.90;;;;;;5092138;28;20024;-78
2022/05/19 01:32:34;;;;;;;21.92;16.10;;;18.40;99.90;;;;;;5092609;28;20024;-78
2022/05/19 01:35:00;;;;;;;26.23;17.73;;;18.40;99.90;;;;;;5092527;28;20035;-78
2022/05/19 01:37:26;;;;;;;19.33;16.02;;;18.40;99.90;;;;;;5091953;28;20040;-77
2022/05/19 01:40:02;;;;;;;23.40;18.17;;;18.50;99.90;;;;;;5092476;28;20026;-78
2022/05/19 01:42:33;;;;;;;22.17;17.40;;;18.50;99.90;;;;;;5093065;28;20044;-79
2022/05/19 01:45:16;;;;;;;19.38;16.30;;;18.50;99.90;;;;;;5091874;28;20027;-78
2022/05/19 01:47:59;;;;;;;23.75;16.88;;;18.50;99.90;;;;;;5092655;28;20039;-79
2022/05/19 01:50:53;;;;;;;24.13;17.50;;;18.50;99.90;;;;;;5092026;28;20422;-78
2022/05/19 01:53:38;;;;;;;18.98;15.65;;;18.60;99.90;;;;;;5092819;28;20024;-78
2022/05/19 01:56:10;;;;;;;22.35;18.23;;;18.60;99.90;;;;;;5091875;28;20056;-77
2022/05/19 01:58:40;;;;;;;23.40;18.27;;;18.60;99.90;;;;;;5092245;28;20528;-79
2022/05/19 02:01:08;;;;;;;29.20;19.15;;;18.50;99.90;;;;;;5092442;28;20024;-78
2022/05/19 02:03:43;;;;;;;20.38;16.85;;;18.60;99.90;;;;;;5092260;28;20028;-78
2022/05/19 02:06:27;;;;;;;21.10;16.63;;;18.60;99.90;;;;;;5091565;28;20032;-77
2022/05/19 02:09:15;;;;;;;20.77;18.63;;;18.60;99.90;;;;;;5091780;28;20039;-78
2022/05/19 02:11:45;;;;;;;22.48;17.85;;;18.60;99.90;;;;;;5091716;28;20468;-79
2022/05/19 02:14:17;;;;;;;31.45;22.13;;;18.60;99.90;;;;;;5092211;28;20024;-77
2022/05/19 02:16:44;;;;;;;19.88;16.98;;;18.60;99.90;;;;;;5092060;28;20107;-77
2022/05/19 02:19:15;;;;;;;22.98;19.35;;;18.60;99.90;;;;;;5091597;28;20028;-76
2022/05/19 02:21:40;;;;;;;32.65;22.05;;;18.60;99.90;;;;;;5092481;28;20024;-78
2022/05/19 02:24:09;;;;;;;39.05;23.73;;;18.70;99.90;;;;;;5091752;28;20485;-78
2022/05/19 02:26:39;;;;;;;41.38;23.95;;;19.00;99.90;;;;;;5091756;28;20024;-77
2022/05/19 02:29:09;;;;;;;37.23;21.57;;;19.10;99.90;;;;;;5092403;28;20105;-76
2022/05/19 02:31:35;;;;;;;29.23;23.45;;;19.00;99.90;;;;;;5096150;28;20278;-76
2022/05/19 02:34:04;;;;;;;44.42;23.98;;;19.00;99.90;;;;;;5095255;28;20023;-75
2022/05/19 02:36:29;;;;;;;37.67;25.52;;;18.90;99.90;;;;;;5096006;28;20031;-76
2022/05/19 02:38:55;;;;;;;31.25;23.85;;;18.90;99.90;;;;;;5095795;28;20031;-76
2022/05/19 02:41:20;;;;;;;34.65;22.75;;;19.00;99.90;;;;;;5095532;28;20027;-76
2022/05/19 02:43:46;;;;;;;19.23;11.95;;;19.00;99.90;;;;;;5096143;28;20032;-76
2022/05/19 02:46:14;;;;;;;6.80;3.75;;;19.10;99.90;;;;;;5095461;28;20139;-76
2022/05/19 02:48:40;;;;;;;3.33;2.47;;;19.00;99.90;;;;;;5095707;28;20035;-76
2022/05/19 02:51:05;;;;;;;5.13;1.40;;;18.90;99.90;;;;;;5098857;28;20024;-76
2022/05/19 02:53:31;;;;;;;1.95;1.40;;;18.80;99.90;;;;;;5095852;28;20149;-76
2022/05/19 02:55:57;;;;;;;3.15;1.80;;;18.70;99.90;;;;;;5094909;28;20491;-77
2022/05/19 02:58:22;;;;;;;7.53;2.13;;;18.60;99.90;;;;;;5095495;28;20104;-76
2022/05/19 03:00:49;;;;;;;2.33;1.88;;;18.60;99.90;;;;;;5094862;28;20020;-76
2022/05/19 03:03:15;;;;;;;4.22;1.88;;;18.60;99.90;;;;;;5095743;28;20031;-76
2022/05/19 03:05:41;;;;;;;7.43;1.60;;;18.50;99.90;;;;;;5095337;28;20016;-77
2022/05/19 03:08:09;;;;;;;3.45;2.00;;;18.40;99.90;;;;;;5094984;28;20032;-76
2022/05/19 03:10:37;;;;;;;1.88;1.50;;;18.30;99.90;;;;;;5095637;28;20024;-77
2022/05/19 03:13:03;;;;;;;3.97;2.05;;;18.20;99.90;;;;;;5094953;28;20032;-77
2022/05/19 03:15:29;;;;;;;3.10;2.00;;;18.30;99.90;;;;;;5094893;28;20492;-77
2022/05/19 03:17:55;;;;;;;4.97;2.25;;;18.30;99.90;;;;;;5094792;28;20497;-77
2022/05/19 03:20:21;;;;;;;5.07;2.55;;;18.30;99.90;;;;;;5095043;28;20020;-76
2022/05/19 03:22:46;;;;;;;3.17;2.60;;;18.20;99.90;;;;;;5094741;28;20035;-77
2022/05/19 03:25:12;;;;;;;2.97;2.03;;;18.30;99.90;;;;;;5094890;28;20076;-76
2022/05/19 03:27:38;;;;;;;2.75;2.25;;;18.20;99.90;;;;;;5094992;28;20093;-77
2022/05/19 03:30:07;;;;;;;3.17;2.50;;;18.20;99.90;;;;;;5094227;28;20026;-76
2022/05/19 03:32:33;;;;;;;2.85;2.42;;;18.20;99.90;;;;;;5094962;28;20031;-77
2022/05/19 03:34:59;;;;;;;7.50;2.88;;;18.20;99.90;;;;;;5094614;28;20023;-77
2022/05/19 03:37:24;;;;;;;3.20;2.28;;;18.20;99.90;;;;;;5094552;28;20036;-76
2022/05/19 03:39:51;;;;;;;2.97;2.40;;;18.20;99.90;;;;;;5094601;28;20475;-76
2022/05/19 03:42:17;;;;;;;2.85;2.42;;;18.20;99.90;;;;;;5094080;28;20085;-77
2022/05/19 03:44:42;;;;;;;4.60;2.58;;;18.20;99.90;;;;;;5095054;28;20494;-77
2022/05/19 03:47:08;;;;;;;4.68;2.80;;;18.20;99.90;;;;;;5094389;28;20089;-77
2022/05/19 03:49:34;;;;;;;2.60;2.33;;;18.20;99.90;;;;;;5095010;28;20042;-77
2022/05/19 03:52:00;;;;;;;2.65;2.45;;;18.20;99.90;;;;;;5093956;28;20073;-78
2022/05/19 03:54:26;;;;;;;3.15;2.50;;;18.10;99.90;;;;;;5094517;28;20143;-79
2022/05/19 03:56:51;;;;;;;2.65;2.40;;;18.10;99.90;;;;;;5094012;28;20052;-78
2022/05/19 03:59:17;;;;;;;4.30;2.65;;;18.20;99.90;;;;;;5094029;28;20375;-78
2022/05/19 04:01:43;;;;;;;2.45;2.25;;;18.10;99.90;;;;;;5094097;28;20032;-77
2022/05/19 04:04:08;;;;;;;4.15;2.53;;;18.20;99.90;;;;;;5093739;28;20042;-77
2022/05/19 04:06:34;;;;;;;4.63;2.83;;;18.20;99.90;;;;;;5094729;28;20021;-77
2022/05/19 04:09:01;;;;;;;3.92;2.38;;;18.20;99.90;;;;;;5095238;28;20107;-77
2022/05/19 04:11:28;;;;;;;3.55;2.58;;;18.20;99.90;;;;;;5095222;28;20043;-77
2022/05/19 04:13:54;;;;;;;3.53;2.50;;;18.20;99.90;;;;;;5093915;28;20034;-76
2022/05/19 04:16:19;;;;;;;4.38;2.60;;;18.30;99.90;;;;;;5093718;28;20016;-77
2022/05/19 04:18:45;;;;;;;4.55;2.58;;;18.30;99.90;;;;;;5093415;28;20093;-76
2022/05/19 04:21:11;;;;;;;4.43;2.92;;;18.50;99.90;;;;;;5094112;28;20061;-78
2022/05/19 04:23:36;;;;;;;3.03;2.72;;;18.60;99.90;;;;;;5094104;28;20020;-78
2022/05/19 04:26:02;;;;;;;3.15;2.80;;;18.50;99.90;;;;;;5093429;28;20020;-77
2022/05/19 04:28:28;;;;;;;3.28;2.97;;;19.10;99.90;;;;;;5094166;28;20077;-77
2022/05/19 04:30:53;;;;;;;2.53;2.33;;;18.40;99.90;;;;;;5093610;28;20043;-78
2022/05/19 04:33:19;;;;;;;3.53;2.67;;;18.30;99.90;;;;;;5093392;28;20023;-78
2022/05/19 04:35:44;;;;;;;3.40;3.10;;;18.20;99.90;;;;;;5093861;28;20020;-77
2022/05/19 04:38:13;;;;;;;4.95;2.83;;;18.20;99.90;;;;;;5093277;28;20032;-78
2022/05/19 04:40:42;;;;;;;8.48;3.35;;;18.10;99.90;;;;;;5093211;28;20027;-79
2022/05/19 04:43:09;;;;;;;4.47;3.08;;;18.10;99.90;;;;;;5093437;28;20518;-79
2022/05/19 04:45:34;;;;;;;4.88;3.42;;;18.10;99.90;;;;;;5093401;28;20031;-79
2022/05/19 04:48:00;;;;;;;4.65;3.92;;;18.10;99.90;;;;;;5092887;28;20016;-78
2022/05/19 04:50:27;;;;;;;4.72;3.67;;;18.00;99.90;;;;;;5093300;28;20028;-77
2022/05/19 04:52:54;;;;;;;5.35;4.10;;;18.00;99.90;;;;;;5093391;28;20043;-79
2022/05/19 04:55:20;;;;;;;5.32;4.15;;;18.00;99.90;;;;;;5093024;28;20036;-78
2022/05/19 04:57:46;;;;;;;7.80;4.05;;;18.00;99.90;;;;;;5092990;28;20055;-79
2022/05/19 05:00:14;;;;;;;5.00;3.85;;;17.90;99.90;;;;;;5092950;28;20031;-79
2022/05/19 05:02:40;;;;;;;4.55;4.00;;;18.00;99.90;;;;;;5092745;28;20522;-79
2022/05/19 05:05:06;;;;;;;13.38;4.20;;;17.90;99.90;;;;;;5092771;28;20051;-79
2022/05/19 05:07:32;;;;;;;6.57;4.20;;;17.90;99.90;;;;;;5092728;28;20024;-79
2022/05/19 05:09:58;;;;;;;4.60;4.20;;;17.90;99.90;;;;;;5092940;28;20023;-79
2022/05/19 05:12:23;;;;;;;5.07;4.57;;;18.00;99.90;;;;;;5092946;28;20056;-79
2022/05/19 05:14:49;;;;;;;6.72;5.15;;;18.00;99.90;;;;;;5092274;28;20020;-80
2022/05/19 05:17:16;;;;;;;5.07;4.57;;;18.00;99.90;;;;;;5092980;28;20036;-79
2022/05/19 05:19:42;;;;;;;5.50;5.00;;;18.10;99.90;;;;;;5092675;28;20728;-78
2022/05/19 05:22:08;;;;;;;5.60;4.93;;;18.10;99.90;;;;;;5092111;28;20032;-79
2022/05/19 05:24:34;;;;;;;6.05;5.28;;;18.10;99.90;;;;;;5092939;28;20020;-78
2022/05/19 05:26:59;;;;;;;8.10;5.10;;;18.20;99.90;;;;;;5092390;28;20038;-79
2022/05/19 05:29:25;;;;;;;6.13;5.57;;;18.20;99.90;;;;;;5092590;28;20024;-79
2022/05/19 05:31:51;;;;;;;7.07;6.43;;;18.20;99.90;;;;;;5092739;28;20486;-79
2022/05/19 05:34:17;;;;;;;6.18;4.80;;;18.20;99.90;;;;;;5092628;28;20022;-79
2022/05/19 05:36:42;;;;;;;5.50;5.00;;;18.30;99.90;;;;;;5092259;28;20059;-82
2022/05/19 05:39:08;;;;;;;5.53;5.10;;;18.30;99.90;;;;;;5073279;28;20502;-77
2022/05/19 05:41:33;;;;;;;5.38;4.88;;;18.40;99.90;;;;;;5092556;28;20544;-77
2022/05/19 05:43:59;;;;;;;6.57;5.80;;;18.40;99.90;;;;;;5090435;28;20031;-78
2022/05/19 05:46:24;;;;;;;5.10;4.60;;;18.50;99.90;;;;;;5090370;28;20024;-78
2022/05/19 05:48:51;;;;;;;4.97;4.57;;;18.50;99.90;;;;;;5090316;28;20380;-78
2022/05/19 05:51:18;;;;;;;4.85;4.35;;;18.50;99.90;;;;;;5089708;28;20028;-78
2022/05/19 05:53:44;;;;;;;4.32;4.03;;;18.60;99.90;;;;;;5090039;28;20423;-78
2022/05/19 05:56:13;;;;;;;7.50;4.85;;;18.70;99.90;;;;;;5090128;28;20040;-78
2022/05/19 05:58:40;;;;;;;5.05;4.63;;;18.80;99.90;;;;;;5086973;28;20028;-77
2022/05/19 06:01:08;;;;;;;4.80;4.38;;;18.80;99.90;;;;;;5090444;28;20066;-79
2022/05/19 06:03:35;;;;;;;5.80;5.30;;;18.90;99.90;;;;;;5090606;28;20096;-77
2022/05/19 06:06:01;;;;;;;5.45;4.90;;;18.90;99.90;;;;;;5090591;28;20020;-78
2022/05/19 06:08:27;;;;;;;5.70;4.32;;;19.00;99.90;;;;;;5090680;28;20024;-78
2022/05/19 06:10:54;;;;;;;5.47;4.63;;;19.00;99.90;;;;;;5089922;28;20348;-77
2022/05/19 06:13:20;;;;;;;5.28;4.78;;;19.00;99.90;;;;;;5090927;28;20387;-78
2022/05/19 06:15:46;;;;;;;4.95;4.50;;;19.00;99.90;;;;;;5090064;28;20020;-78
2022/05/19 06:18:11;;;;;;;5.13;4.70;;;19.10;99.90;;;;;;5090689;28;20043;-78
2022/05/19 06:20:38;;;;;;;5.25;4.43;;;19.10;99.90;;;;;;5091510;28;20016;-79
2022/05/19 06:23:05;;;;;;;4.30;3.90;;;19.10;99.90;;;;;;5091030;28;20028;-77
2022/05/19 06:25:32;;;;;;;5.05;4.18;;;19.20;99.90;;;;;;5088289;28;20035;-77
2022/05/19 06:27:59;;;;;;;3.92;3.63;;;19.10;99.90;;;;;;5091335;28;20032;-79
2022/05/19 06:30:25;;;;;;;4.43;4.03;;;19.30;99.90;;;;;;5091450;28;20043;-79
2022/05/19 06:32:51;;;;;;;5.20;4.50;;;19.30;99.90;;;;;;5090792;28;20031;-78
2022/05/19 06:35:20;;;;;;;5.13;4.47;;;19.30;99.90;;;;;;5091130;28;20020;-79
2022/05/19 06:37:46;;;;;;;5.10;3.90;;;19.30;99.90;;;;;;5090381;28;20361;-79
2022/05/19 06:40:15;;;;;;;4.18;3.78;;;19.40;99.90;;;;;;5085538;28;20035;-79
2022/05/19 06:42:41;;;;;;;5.38;3.90;;;19.50;99.90;;;;;;5090661;28;20099;-78
2022/05/19 06:45:07;;;;;;;4.53;3.78;;;19.50;99.90;;;;;;5088238;28;20104;-78
2022/05/19 06:47:33;;;;;;;3.80;3.38;;;19.60;99.90;;;;;;5090444;28;20390;-77
2022/05/19 06:49:59;;;;;;;4.85;4.15;;;19.70;99.90;;;;;;5087963;28;20044;-78
2022/05/19 06:52:28;;;;;;;3.90;3.60;;;19.70;99.90;;;;;;5088599;28;20049;-77
2022/05/19 06:54:58;;;;;;;4.38;3.53;;;19.80;99.90;;;;;;5088509;28;20030;-78
2022/05/19 06:57:25;;;;;;;4.80;4.18;;;19.90;99.90;;;;;;5094561;28;20106;-77
2022/05/19 06:59:52;;;;;;;5.35;4.55;;;20.00;99.90;;;;;;5092649;28;20032;-78
2022/05/19 07:02:19;;;;;;;6.07;3.97;;;20.00;99.90;;;;;;5091527;28;20028;-79
2022/05/19 07:04:45;;;;;;;4.05;3.70;;;20.10;99.90;;;;;;5090973;28;20116;-78
2022/05/19 07:07:12;;;;;;;4.72;4.32;;;20.20;99.90;;;;;;5089811;28;20147;-78
2022/05/19 07:09:38;;;;;;;4.28;3.97;;;20.20;99.90;;;;;;5090971;28;20480;-78
2022/05/19 07:12:05;;;;;;;7.00;4.50;;;20.30;99.90;;;;;;5089863;28;20040;-78
2022/05/19 07:14:31;;;;;;;6.82;4.50;;;20.40;99.90;;;;;;5087652;28;20047;-78
2022/05/19 07:16:57;;;;;;;6.45;5.05;;;20.50;99.90;;;;;;5093169;28;20031;-78
2022/05/19 07:22:15;;;;;;;7.10;4.70;;;20.60;99.90;;;;;;5093690;28;20093;-77
2022/05/19 07:24:40;;;;;;;5.05;4.50;;;20.70;99.90;;;;;;5091888;28;20110;-76
2022/05/19 07:27:06;;;;;;;4.25;3.92;;;20.80;99.90;;;;;;5093465;28;20082;-79
2022/05/19 07:29:32;;;;;;;4.57;4.13;;;20.90;99.90;;;;;;5094060;28;20108;-75
2022/05/19 07:32:01;;;;;;;5.53;4.50;;;20.90;99.90;;;;;;5094621;28;20039;-78
2022/05/19 07:34:29;;;;;;;7.85;5.00;;;21.00;99.90;;;;;;5091859;28;20032;-80
2022/05/19 07:36:55;;;;;;;4.05;3.75;;;21.10;99.90;;;;;;5094443;28;20036;-79
2022/05/19 07:39:21;;;;;;;4.68;4.20;;;21.20;99.90;;;;;;5094853;28;20043;-78
2022/05/19 07:41:47;;;;;;;7.43;4.35;;;21.30;99.90;;;;;;5094990;28;20158;-77
2022/05/19 07:44:14;;;;;;;4.95;4.20;;;21.40;99.90;;;;;;5094509;28;20111;-79
2022/05/19 07:46:40;;;;;;;4.28;3.83;;;21.40;99.90;;;;;;5094633;28;20129;-79
2022/05/19 07:49:05;;;;;;;4.65;4.20;;;21.60;99.90;;;;;;5094710;28;20032;-76
2022/05/19 07:51:36;;;;;;;4.63;3.95;;;21.60;99.90;;;;;;5094694;28;20028;-76
2022/05/19 07:54:04;;;;;;;4.25;3.60;;;21.80;99.90;;;;;;5094354;28;20027;-76
2022/05/19 07:56:29;;;;;;;4.65;4.05;;;21.90;99.90;;;;;;5093846;28;20051;-78
2022/05/19 07:58:55;;;;;;;5.72;3.50;;;22.00;99.90;;;;;;5094377;28;20046;-78
2022/05/19 08:01:21;;;;;;;4.25;3.72;;;22.10;99.90;;;;;;5093500;28;20169;-78
2022/05/19 08:03:46;;;;;;;5.85;3.72;;;22.20;99.90;;;;;;5090227;28;20032;-77
2022/05/19 08:06:12;;;;;;;5.53;4.63;;;22.30;99.90;;;;;;5092238;28;20020;-77
2022/05/19 08:08:39;;;;;;;5.93;4.63;;;22.30;99.90;;;;;;5092496;28;20101;-78
2022/05/19 08:11:05;;;;;;;7.75;5.05;;;22.40;99.90;;;;;;5093011;28;20113;-77
2022/05/19 08:16:15;;;;;;;4.78;4.22;;;22.50;99.90;;;;;;5091560;28;20085;-77
2022/05/19 08:18:41;;;;;;;6.57;4.88;;;22.50;99.90;;;;;;5090354;28;20028;-77
2022/05/19 08:21:11;;;;;;;6.05;4.65;;;22.50;99.90;;;;;;5093370;28;20348;-76
2022/05/19 08:23:43;;;;;;;4.90;4.50;;;22.50;99.90;;;;;;5093878;28;20032;-76
2022/05/19 08:26:09;;;;;;;4.05;3.65;;;22.40;99.90;;;;;;5093099;28;20032;-76
2022/05/19 08:28:37;;;;;;;8.00;4.95;;;22.30;99.90;;;;;;5093453;28;20403;-76
2022/05/19 08:31:16;;;;;;;3.80;3.50;;;22.30;99.90;;;;;;5093814;28;20024;-76
2022/05/19 08:33:43;;;;;;;5.43;4.88;;;22.20;99.90;;;;;;5093959;28;20107;-75
2022/05/19 08:36:10;;;;;;;4.53;4.07;;;22.10;99.90;;;;;;5093491;28;20031;-76
2022/05/19 08:38:37;;;;;;;6.25;5.57;;;22.10;99.90;;;;;;5092871;28;20036;-75
2022/05/19 08:41:11;;;;;;;5.20;4.70;;;22.00;99.90;;;;;;5093271;28;20028;-76
2022/05/19 08:44:02;;;;;;;5.72;4.22;;;21.90;99.90;;;;;;5093512;28;20039;-75
2022/05/19 08:46:45;;;;;;;6.28;4.53;;;21.70;99.90;;;;;;5093275;28;20027;-76
2022/05/19 08:49:27;;;;;;;5.97;4.35;;;21.70;99.90;;;;;;5093440;28;20039;-76
2022/05/19 08:52:08;;;;;;;4.70;4.22;;;21.70;99.90;;;;;;5093266;28;20594;-75
2022/05/19 08:54:36;;;;;;;5.50;5.00;;;21.80;99.90;;;;;;5093141;28;20112;-75
2022/05/19 08:57:14;;;;;;;8.38;6.63;;;21.90;99.90;;;;;;5092550;28;20047;-76
2022/05/19 08:59:42;;;;;;;6.22;5.68;;;22.20;99.90;;;;;;5093076;28;20039;-75
2022/05/19 09:02:15;;;;;;;9.50;5.53;;;22.50;99.90;;;;;;5093339;28;20436;-75
2022/05/19 09:05:08;;;;;;;6.00;4.50;;;22.80;99.90;;;;;;5093353;28;20258;-75
2022/05/19 09:07:57;;;;;;;5.90;4.00;;;23.00;99.90;;;;;;5093227;28;20077;-75
2022/05/19 09:10:49;;;;;;;6.05;5.47;;;23.30;99.90;;;;;;5093314;28;20020;-75
2022/05/19 09:13:26;;;;;;;6.80;5.85;;;23.50;99.90;;;;;;5093214;28;20028;-74
2022/05/19 09:15:52;;;;;;;4.75;4.35;;;23.50;99.90;;;;;;5092273;28;20480;-75
2022/05/19 09:18:25;;;;;;;6.30;5.70;;;23.60;99.90;;;;;;5092688;28;20036;-75
2022/05/19 09:20:53;;;;;;;12.52;6.65;;;23.70;99.90;;;;;;5092466;28;20500;-75
2022/05/19 09:23:20;;;;;;;7.25;5.97;;;23.90;99.90;;;;;;5092959;28;20031;-76
2022/05/19 09:26:08;;;;;;;6.15;5.55;;;24.00;99.90;;;;;;5092851;28;20027;-75
2022/05/19 09:28:35;;;;;;;6.07;4.60;;;24.10;99.90;;;;;;5050818;28;20039;-74
2022/05/19 09:31:00;;;;;;;4.30;3.90;;;24.40;99.90;;;;;;5092268;28;20108;-75
2022/05/19 09:33:32;;;;;;;4.20;3.80;;;24.50;99.90;;;;;;5092769;28;20114;-75
2022/05/19 09:35:59;;;;;;;6.55;4.80;;;24.60;99.90;;;;;;5091799;28;20051;-75
2022/05/19 09:38:31;;;;;;;6.28;5.68;;;24.70;99.90;;;;;;5092247;28;20036;-74
2022/05/19 09:41:22;;;;;;;5.47;4.80;;;24.70;99.90;;;;;;5092684;28;20448;-75
2022/05/19 09:43:54;;;;;;;;;;;24.60;99.90;;;;;;5095195;28;20052;-77
2022/05/19 09:46:20;;;;;;;7.45;5.00;;;24.70;99.90;;;;;;5095410;28;19911;-75
2022/05/19 09:48:48;;;;;;;6.57;5.53;;;24.80;99.90;;;;;;5092365;28;20039;-74
2022/05/19 09:51:17;;;;;;;10.77;7.53;;;24.80;99.90;;;;;;5092427;28;20513;-74
2022/05/19 09:53:54;;;;;;;5.45;4.70;;;24.60;99.90;;;;;;5092231;28;20024;-75
2022/05/19 09:56:22;;;;;;;6.35;4.63;;;24.60;99.90;;;;;;5091881;28;20024;-75
2022/05/19 09:59:02;;;;;;;10.63;6.43;;;24.50;99.90;;;;;;5092267;28;20055;-75
2022/05/19 10:01:32;;;;;;;6.90;6.10;;;24.50;99.90;;;;;;5092464;28;20369;-74
2022/05/19 10:04:01;;;;;;;6.82;6.07;;;24.50;99.90;;;;;;5091582;28;20446;-75
2022/05/19 10:06:50;;;;;;;7.13;6.43;;;24.50;99.90;;;;;;5092178;28;20111;-75
2022/05/19 10:09:20;;;;;;;6.93;5.95;;;24.60;99.90;;;;;;5081553;28;20052;-75
2022/05/19 10:12:06;;;;;;;6.60;6.00;;;24.70;99.90;;;;;;5091890;28;20090;-75
2022/05/19 10:14:32;;;;;;;7.57;6.97;;;24.80;99.90;;;;;;5092053;28;20032;-74
2022/05/19 10:17:17;;;;;;;9.05;7.55;;;24.90;99.90;;;;;;5091261;28;20022;-74
2022/05/19 10:19:43;;;;;;;8.40;7.55;;;25.00;99.90;;;;;;5092339;28;20449;-74
2022/05/19 10:22:18;;;;;;;7.78;7.13;;;25.10;99.90;;;;;;5091576;28;20099;-75
2022/05/19 10:24:58;;;;;;;8.13;7.43;;;25.30;99.90;;;;;;5091654;28;20027;-74
2022/05/19 10:33:24;;;;;;;6.55;5.95;;;25.20;99.90;;;;;;5091602;28;20086;-75
2022/05/19 10:35:56;;;;;;;8.07;7.35;;;25.00;99.90;;;;;;5091730;28;20020;-76
2022/05/19 10:38:31;;;;;;;11.70;8.18;;;24.80;99.90;;;;;;5091508;28;20039;-75
2022/05/19 10:41:22;;;;;;;10.45;8.07;;;24.60;99.90;;;;;;5091940;28;20095;-75
2022/05/19 10:44:07;;;;;;;8.55;7.80;;;24.40;99.90;;;;;;5091677;28;20032;-75
2022/05/19 10:46:57;;;;;;;7.90;7.10;;;24.00;99.90;;;;;;5091434;28;20034;-76
2022/05/19 10:49:45;;;;;;;6.63;5.45;;;23.80;99.90;;;;;;5091848;28;20078;-76
2022/05/19 10:52:19;;;;;;;7.97;7.28;;;23.60;99.90;;;;;;5055086;28;20070;-76
2022/05/19 10:55:19;;;;;;;7.35;6.75;;;23.50;99.90;;;;;;5096089;28;20133;-76
2022/05/19 10:58:09;;;;;;;11.27;10.38;;;23.30;99.90;;;;;;5095715;28;20064;-76
2022/05/19 11:00:53;;;;;;;14.85;11.98;;;23.10;99.90;;;;;;5095373;28;20032;-76
2022/05/19 11:03:46;;;;;;;13.05;11.93;;;23.00;99.90;;;;;;5095461;28;20024;-75
2022/05/19 11:06:36;;;;;;;12.38;11.23;;;22.90;99.90;;;;;;5094843;28;20095;-77
2022/05/19 11:09:20;;;;;;;16.08;12.02;;;22.70;99.90;;;;;;5095332;28;20030;-78
2022/05/19 11:12:14;;;;;;;26.60;16.42;;;22.60;99.90;;;;;;5095519;28;20032;-76
2022/05/19 11:15:14;;;;;;;14.00;8.25;;;22.60;99.90;;;;;;5085311;28;20039;-76
2022/05/19 11:17:40;;;;;;;10.47;2.53;;;21.80;99.90;;;;;;5095223;28;20055;-77
2022/05/19 11:20:12;;;;;;;8.30;1.85;;;20.00;99.90;;;;;;5094338;28;20460;-76
2022/05/19 11:22:39;;;;;;;7.97;3.75;;;18.50;99.90;;;;;;5095249;28;20027;-75
2022/05/19 11:28:05;;;;;;;10.63;9.50;;;17.60;99.90;;;;;;5094651;28;20028;-75
2022/05/19 11:30:40;;;;;;;16.75;11.55;;;17.60;99.90;;;;;;5094992;28;20074;-74
2022/05/19 11:33:14;;;;;;;16.70;14.40;;;17.60;99.90;;;;;;5094713;28;20077;-75
2022/05/19 11:35:51;;;;;;;20.30;18.08;;;17.70;99.90;;;;;;5094494;28;20436;-75
2022/05/19 11:38:23;;;;;;;28.98;20.95;;;17.70;99.90;;;;;;5095047;28;20068;-74
2022/05/19 11:41:14;;;;;;;25.30;21.63;;;17.80;99.90;;;;;;5094749;28;20020;-74
2022/05/19 11:43:41;;;;;;;25.20;21.88;;;17.90;99.90;;;;;;5094978;28;20047;-74
2022/05/19 11:46:15;;;;;;;25.17;22.52;;;18.00;99.90;;;;;;5094351;28;20186;-73
2022/05/19 11:57:38;;;;;;;34.13;27.10;;;18.10;99.90;;;;;;5094136;28;20109;-75
2022/05/19 12:00:06;;;;;;;35.03;26.95;;;18.10;99.90;;;;;;5094222;28;20038;-75
2022/05/19 12:02:45;;;;;;;35.83;27.60;;;18.20;99.90;;;;;;5093342;28;20027;-75
2022/05/19 12:05:20;;;;;;;40.53;29.40;;;18.20;99.90;;;;;;5094214;28;20517;-73
2022/05/19 12:07:53;;;;;;;35.40;27.40;;;18.10;99.90;;;;;;5094665;28;20032;-74
2022/05/19 12:10:24;;;;;;;34.00;27.42;;;18.10;99.90;;;;;;5093925;28;20099;-74
2022/05/19 12:13:00;;;;;;;40.70;30.27;;;18.10;99.90;;;;;;5093857;28;20551;-74
2022/05/19 12:15:35;;;;;;;38.17;27.05;;;18.20;99.90;;;;;;5094282;28;20112;-74
2022/05/19 12:18:32;;;;;;;40.92;30.00;;;18.20;99.90;;;;;;5093681;28;20085;-74
2022/05/19 12:21:01;;;;;;;35.85;28.17;;;18.20;99.90;;;;;;5093528;28;20020;-74
2022/05/19 12:23:37;;;;;;;46.65;34.35;;;18.30;99.90;;;;;;5093566;28;20031;-74
2022/05/19 12:26:11;;;;;;;40.38;29.73;;;18.30;99.90;;;;;;5093715;28;20028;-73
2022/05/19 12:28:50;;;;;;;42.10;31.55;;;18.30;99.90;;;;;;5094133;28;20114;-74
2022/05/19 12:34:31;;;;;;;38.53;31.08;;;18.30;99.90;;;;;;5097975;28;20031;-74
2022/05/19 12:37:08;;;;;;;37.08;31.15;;;18.30;99.90;;;;;;5093621;28;20052;-73
2022/05/19 12:39:47;;;;;;;39.42;30.77;;;18.30;99.90;;;;;;5093193;28;20016;-73
2022/05/19 12:42:35;;;;;;;34.30;26.73;;;18.30;99.90;;;;;;5093560;28;20035;-74
2022/05/19 12:45:25;;;;;;;42.60;29.38;;;18.30;99.90;;;;;;5092939;28;20039;-73
2022/05/19 12:47:56;;;;;;;32.73;27.23;;;18.30;99.90;;;;;;5093272;28;20044;-73
2022/05/19 12:50:23;;;;;;;34.70;27.85;;;18.30;99.90;;;;;;5093296;28;20084;-73
2022/05/19 12:53:14;;;;;;;32.58;24.23;;;18.40;99.90;;;;;;5092683;28;20024;-73
2022/05/19 12:55:44;;;;;;;31.80;24.52;;;18.40;99.90;;;;;;5093508;28;20031;-73
2022/05/19 12:58:37;;;;;;;45.38;31.35;;;18.60;99.90;;;;;;5092937;28;20043;-73
2022/05/19 13:01:09;;;;;;;33.50;27.90;;;18.80;99.90;;;;;;5093131;28;20105;-73
2022/05/19 13:03:35;;;;;;;33.17;24.52;;;18.90;99.90;;;;;;5093058;28;20021;-73
2022/05/19 13:06:05;;;;;;;31.45;26.50;;;18.90;99.90;;;;;;5092726;28;20036;-73
2022/05/19 13:08:40;;;;;;;36.58;25.05;;;19.20;99.90;;;;;;5093564;28;20042;-72
2022/05/19 13:11:13;;;;;;;38.70;29.27;;;19.50;99.90;;;;;;5092901;28;20032;-73
2022/05/19 13:13:50;;;;;;;35.08;28.52;;;19.80;99.90;;;;;;5091611;28;20111;-73
2022/05/19 13:16:32;;;;;;;31.15;26.05;;;20.00;99.90;;;;;;5086160;28;20032;-73
2022/05/19 13:19:01;;;;;;;30.05;26.95;;;20.20;99.90;;;;;;5090857;28;20040;-73
2022/05/19 13:21:35;;;;;;;27.88;24.65;;;20.30;99.90;;;;;;5087140;28;20032;-73
2022/05/19 13:24:06;;;;;;;32.00;26.45;;;20.50;99.90;;;;;;5090238;28;20085;-73
2022/05/19 13:26:34;;;;;;;24.98;22.10;;;20.70;99.90;;;;;;5092475;28;20030;-73